createdAt,value
2018-05-21T00:00:42.075Z,94816.78
2018-05-21T00:03:09.599Z,94818.13
2018-05-21T00:05:37.131Z,94815.90
2018-05-21T00:08:04.658Z,94821.95
2018-05-21T00:10:32.180Z,94820.54
2018-05-21T00:12:59.696Z,94816.02
2018-05-21T00:15:27.199Z,94815.07
2018-05-21T00:17:54.760Z,94824.11
2018-05-21T00:20:22.287Z,94818.23
2018-05-21T00:22:49.803Z,94822.53
2018-05-21T00:25:17.307Z,94819.45
2018-05-21T00:27:44.822Z,94820.73
2018-05-21T00:30:12.373Z,94825.89
2018-05-21T00:32:39.907Z,94823.55
2018-05-21T00:35:07.463Z,94820.04
2018-05-21T00:37:35.025Z,94827.10
2018-05-21T00:40:02.550Z,94825.25
2018-05-21T00:42:30.061Z,94825.87
2018-05-21T00:44:57.560Z,94816.75
2018-05-21T00:47:25.064Z,94820.83
2018-05-21T00:49:52.572Z,94821.72
2018-05-21T00:52:20.067Z,94821.38
2018-05-21T00:54:59.407Z,94827.58
2018-05-21T00:57:26.918Z,94822.47
2018-05-21T00:59:54.430Z,94821.81
2018-05-21T01:02:21.965Z,94821.03
2018-05-21T01:04:49.483Z,94820.49
2018-05-21T01:07:17.017Z,94820.94
2018-05-21T01:09:44.533Z,94816.98
2018-05-21T01:12:12.062Z,94816.61
2018-05-21T01:14:39.581Z,94824.09
2018-05-21T01:17:07.101Z,94820.84
2018-05-21T01:19:34.624Z,94819.38
2018-05-21T01:22:02.131Z,94819.14
2018-05-21T01:24:29.649Z,94818.98
2018-05-21T01:26:57.167Z,94819.30
2018-05-21T01:29:24.706Z,94817.68
2018-05-21T01:31:52.222Z,94817.28
2018-05-21T01:34:19.739Z,94814.75
2018-05-21T01:36:47.248Z,94815.80
2018-05-21T01:39:14.754Z,94812.58
2018-05-21T01:41:42.302Z,94817.17
2018-05-21T01:44:09.811Z,94806.27
2018-05-21T01:46:37.347Z,94807.58
2018-05-21T01:49:04.893Z,94809.42
2018-05-21T01:51:32.437Z,94811.75
2018-05-21T01:53:59.981Z,94809.82
2018-05-21T01:56:27.523Z,94812.06
2018-05-21T01:58:55.036Z,94812.09
2018-05-21T02:01:22.570Z,94814.91
2018-05-21T02:03:50.095Z,94812.63
2018-05-21T02:06:17.601Z,94817.70
2018-05-21T02:08:45.118Z,94817.87
2018-05-21T02:11:12.650Z,94816.87
2018-05-21T02:13:40.171Z,94819.77
2018-05-21T02:16:07.678Z,94818.80
2018-05-21T02:18:35.199Z,94816.81
2018-05-21T02:21:02.748Z,94816.20
2018-05-21T02:23:30.316Z,94819.75
2018-05-21T02:25:57.843Z,94821.77
2018-05-21T02:28:25.354Z,94822.07
2018-05-21T02:30:52.945Z,94820.88
2018-05-21T02:33:20.514Z,94826.13
2018-05-21T02:35:48.028Z,94826.44
2018-05-21T02:38:15.556Z,94828.55
2018-05-21T02:40:43.077Z,94828.94
2018-05-21T02:43:10.632Z,94827.84
2018-05-21T02:45:38.130Z,94834.80
2018-05-21T02:48:05.645Z,94828.27
2018-05-21T02:50:33.165Z,94829.88
2018-05-21T02:53:00.694Z,94833.91
2018-05-21T02:55:28.257Z,94828.94
2018-05-21T02:57:55.783Z,94836.33
2018-05-21T03:00:23.351Z,94836.84
2018-05-21T03:02:50.871Z,94838.92
2018-05-21T03:05:18.395Z,94838.50
2018-05-21T03:07:45.920Z,94840.63
2018-05-21T03:10:13.443Z,94834.65
2018-05-21T03:12:41.015Z,94837.19
2018-05-21T03:15:08.573Z,94836.17
2018-05-21T03:17:36.099Z,94835.99
2018-05-21T03:20:03.695Z,94836.52
2018-05-21T03:22:31.216Z,94837.40
2018-05-21T03:24:58.731Z,94835.11
2018-05-21T03:27:26.266Z,94833.40
2018-05-21T03:29:53.849Z,94836.11
2018-05-21T03:32:21.380Z,94836.42
2018-05-21T03:34:48.899Z,94833.70
2018-05-21T03:37:16.421Z,94836.75
2018-05-21T03:39:43.980Z,94840.66
2018-05-21T03:42:11.558Z,94845.70
2018-05-21T03:44:39.121Z,94849.36
2018-05-21T03:47:06.719Z,94841.67
2018-05-21T03:49:34.251Z,94846.13
2018-05-21T03:52:01.766Z,94848.69
2018-05-21T03:54:29.303Z,94845.02
2018-05-21T03:56:56.899Z,94844.53
2018-05-21T03:59:36.292Z,94846.37
2018-05-21T04:02:15.632Z,94845.55
2018-05-21T04:04:43.175Z,94849.06
2018-05-21T04:07:10.699Z,94848.23
2018-05-21T04:09:38.946Z,94842.70
2018-05-21T04:12:06.463Z,94845.31
2018-05-21T04:14:34.036Z,94850.07
2018-05-21T04:17:01.547Z,94852.67
2018-05-21T04:19:29.075Z,94856.64
2018-05-21T04:21:56.601Z,94860.45
2018-05-21T04:24:24.109Z,94859.11
2018-05-21T04:26:51.630Z,94857.62
2018-05-21T04:29:19.182Z,94862.53
2018-05-21T04:31:46.718Z,94857.89
2018-05-21T04:34:14.255Z,94866.02
2018-05-21T04:36:41.766Z,94867.72
2018-05-21T04:39:09.285Z,94862.95
2018-05-21T04:41:36.837Z,94866.06
2018-05-21T04:44:04.373Z,94866.86
2018-05-21T04:46:31.901Z,94866.06
2018-05-21T04:48:59.413Z,94872.85
2018-05-21T04:51:26.919Z,94865.94
2018-05-21T04:53:54.458Z,94866.11
2018-05-21T04:56:21.986Z,94866.30
2018-05-21T04:58:49.531Z,94870.54
2018-05-21T05:01:17.051Z,94873.69
2018-05-21T05:03:44.682Z,94871.59
2018-05-21T05:06:12.259Z,94874.18
2018-05-21T05:08:39.793Z,94870.58
2018-05-21T05:11:07.338Z,94873.87
2018-05-21T05:13:34.868Z,94878.28
2018-05-21T05:16:02.437Z,94873.03
2018-05-21T05:18:29.978Z,94874.73
2018-05-21T05:20:57.524Z,94871.15
2018-05-21T05:23:25.143Z,94873.91
2018-05-21T05:25:52.655Z,94866.86
2018-05-21T05:28:20.187Z,94870.59
2018-05-21T05:30:48.301Z,94871.80
2018-05-21T05:33:15.819Z,94868.16
2018-05-21T05:35:43.396Z,94868.23
2018-05-21T05:38:10.918Z,94866.22
2018-05-21T05:40:38.460Z,94870.00
2018-05-21T05:43:06.017Z,94865.51
2018-05-21T05:45:33.524Z,94867.62
2018-05-21T05:48:01.035Z,94863.37
2018-05-21T05:50:28.556Z,94874.37
2018-05-21T05:52:56.076Z,94876.14
2018-05-21T05:55:23.675Z,94877.30
2018-05-21T05:57:51.184Z,94874.77
2018-05-21T06:00:18.751Z,94880.27
2018-05-21T06:02:46.306Z,94880.48
2018-05-21T06:05:13.876Z,94880.09
2018-05-21T06:07:41.394Z,94879.98
2018-05-21T06:10:09.028Z,94885.59
2018-05-21T06:12:36.589Z,94873.41
2018-05-21T06:15:04.175Z,94875.55
2018-05-21T06:17:31.755Z,94867.87
2018-05-21T06:19:59.363Z,94867.77
2018-05-21T06:22:26.921Z,94869.88
2018-05-21T06:24:54.525Z,94876.54
2018-05-21T06:27:22.072Z,94873.82
2018-05-21T06:29:49.594Z,94873.94
2018-05-21T06:32:17.168Z,94871.03
2018-05-21T06:34:44.728Z,94868.94
2018-05-21T06:37:12.283Z,94870.03
2018-05-21T06:39:39.828Z,94870.84
2018-05-21T06:42:07.349Z,94864.34
2018-05-21T06:44:34.884Z,94867.90
2018-05-21T06:47:02.415Z,94866.02
2018-05-21T06:49:29.936Z,94866.72
2018-05-21T06:51:57.539Z,94868.20
2018-05-21T06:54:25.064Z,94864.71
2018-05-21T06:56:52.628Z,94864.41
2018-05-21T06:59:20.157Z,94867.61
2018-05-21T07:01:47.671Z,94868.56
2018-05-21T07:04:15.211Z,94865.27
2018-05-21T07:06:42.742Z,94859.69
2018-05-21T07:09:10.247Z,94863.98
2018-05-21T07:11:37.817Z,94858.38
2018-05-21T07:14:05.370Z,94860.29
2018-05-21T07:16:32.941Z,94867.05
2018-05-21T07:19:00.451Z,94868.56
2018-05-21T07:21:27.970Z,94877.98
2018-05-21T07:23:55.486Z,94872.45
2018-05-21T07:26:22.999Z,94882.03
2018-05-21T07:28:50.574Z,94880.31
2018-05-21T07:31:18.165Z,94882.62
2018-05-21T07:33:45.682Z,94880.69
2018-05-21T07:36:13.196Z,94878.99
2018-05-21T07:38:40.756Z,94877.13
2018-05-21T07:41:08.273Z,94878.63
2018-05-21T07:43:35.807Z,94868.53
2018-05-21T07:46:03.364Z,94878.55
2018-05-21T07:48:30.886Z,94869.64
2018-05-21T07:50:58.450Z,94872.41
2018-05-21T07:53:25.979Z,94875.14
2018-05-21T07:55:53.488Z,94870.21
2018-05-21T07:58:21.056Z,94870.08
2018-05-21T08:00:48.609Z,94873.22
2018-05-21T08:03:16.123Z,94870.91
2018-05-21T08:05:43.687Z,94876.55
2018-05-21T08:08:11.211Z,94874.97
2018-05-21T08:10:38.760Z,94877.57
2018-05-21T08:13:06.269Z,94876.02
2018-05-21T08:15:34.222Z,94877.81
2018-05-21T08:18:01.736Z,94875.95
2018-05-21T08:20:29.243Z,94880.02
2018-05-21T08:22:56.747Z,94877.95
2018-05-21T08:25:24.252Z,94878.54
2018-05-21T08:27:51.802Z,94882.58
2018-05-21T08:30:19.319Z,94888.97
2018-05-21T08:32:46.849Z,94889.30
2018-05-21T08:35:14.379Z,94890.61
2018-05-21T08:37:41.921Z,94887.30
2018-05-21T08:40:09.455Z,94891.02
2018-05-21T08:42:37.004Z,94890.27
2018-05-21T08:45:04.519Z,94891.78
2018-05-21T08:47:32.031Z,94896.97
2018-05-21T08:49:59.549Z,94898.89
2018-05-21T08:52:27.129Z,94896.28
2018-05-21T08:54:54.616Z,94887.36
2018-05-21T08:57:22.122Z,94893.69
2018-05-21T08:59:49.691Z,94903.55
2018-05-21T09:02:17.203Z,94893.94
2018-05-21T09:04:44.773Z,94896.50
2018-05-21T09:07:12.313Z,94894.02
2018-05-21T09:09:39.822Z,94893.36
2018-05-21T09:12:07.345Z,94891.92
2018-05-21T09:14:34.855Z,94893.59
2018-05-21T09:17:02.407Z,94896.02
2018-05-21T09:19:29.925Z,94890.14
2018-05-21T09:21:57.434Z,94887.95
2018-05-21T09:24:24.992Z,94886.36
2018-05-21T09:26:52.531Z,94890.66
2018-05-21T09:29:20.067Z,94889.82
2018-05-21T09:31:47.585Z,94884.29
2018-05-21T09:34:15.110Z,94883.97
2018-05-21T09:36:42.641Z,94880.21
2018-05-21T09:39:10.158Z,94876.66
2018-05-21T09:44:02.833Z,94871.52
2018-05-21T09:46:30.343Z,94866.23
2018-05-21T09:48:57.872Z,94876.88
2018-05-21T09:51:25.414Z,94884.61
2018-05-21T09:53:52.989Z,94884.75
2018-05-21T09:56:20.508Z,94888.45
2018-05-21T09:58:48.044Z,94889.12
2018-05-21T10:01:15.561Z,94886.92
2018-05-21T10:03:43.067Z,94885.68
2018-05-21T10:06:10.590Z,94887.07
2018-05-21T10:08:38.093Z,94879.81
2018-05-21T10:11:05.598Z,94887.42
2018-05-21T10:13:33.118Z,94882.09
2018-05-21T10:16:00.657Z,94885.50
2018-05-21T10:18:28.163Z,94877.47
2018-05-21T10:20:55.691Z,94879.53
2018-05-21T10:23:23.206Z,94877.59
2018-05-21T10:25:50.714Z,94875.88
2018-05-21T10:28:18.235Z,94881.48
2018-05-21T10:30:46.164Z,94877.59
2018-05-21T10:33:13.692Z,94880.67
2018-05-21T10:35:41.210Z,94884.13
2018-05-21T10:38:08.768Z,94879.83
2018-05-21T10:40:36.332Z,94881.42
2018-05-21T10:43:03.886Z,94878.98
2018-05-21T10:45:31.425Z,94875.47
2018-05-21T10:47:58.962Z,94879.36
2018-05-21T10:50:26.511Z,94877.78
2018-05-21T10:52:54.088Z,94878.87
2018-05-21T10:55:21.702Z,94867.94
2018-05-21T10:57:49.230Z,94871.17
2018-05-21T11:00:16.790Z,94869.06
2018-05-21T11:02:44.486Z,94867.64
2018-05-21T11:05:12.072Z,94866.23
2018-05-21T11:07:39.611Z,94855.48
2018-05-21T11:10:07.208Z,94865.73
2018-05-21T11:12:34.725Z,94857.23
2018-05-21T11:15:02.309Z,94858.92
2018-05-21T11:17:29.886Z,94857.22
2018-05-21T11:19:57.398Z,94856.41
2018-05-21T11:22:24.948Z,94857.02
2018-05-21T11:24:52.458Z,94856.55
2018-05-21T11:27:20.007Z,94859.37
2018-05-21T11:29:47.511Z,94851.39
2018-05-21T11:32:15.035Z,94854.91
2018-05-21T11:34:42.555Z,94856.78
2018-05-21T11:37:10.114Z,94854.30
2018-05-21T11:39:37.652Z,94856.20
2018-05-21T11:42:05.205Z,94848.58
2018-05-21T11:44:32.768Z,94847.50
2018-05-21T11:47:00.299Z,94847.33
2018-05-21T11:49:27.874Z,94847.79
2018-05-21T11:51:55.426Z,94845.81
2018-05-21T11:54:22.999Z,94843.22
2018-05-21T11:56:50.520Z,94847.87
2018-05-21T11:59:18.068Z,94843.91
2018-05-21T12:01:46.302Z,94839.77
2018-05-21T12:04:13.817Z,94851.85
2018-05-21T12:06:41.343Z,94843.34
2018-05-21T12:09:08.853Z,94839.93
2018-05-21T12:11:36.371Z,94838.49
2018-05-21T12:14:03.917Z,94841.35
2018-05-21T12:16:31.487Z,94840.98
2018-05-21T12:18:59.023Z,94842.27
2018-05-21T12:21:26.574Z,94837.81
2018-05-21T12:23:54.094Z,94841.67
2018-05-21T12:26:21.647Z,94837.69
2018-05-21T12:28:49.256Z,94837.52
2018-05-21T12:31:16.737Z,94830.75
2018-05-21T12:33:44.265Z,94832.09
2018-05-21T12:36:11.803Z,94833.92
2018-05-21T12:38:39.315Z,94833.36
2018-05-21T12:41:06.827Z,94828.02
2018-05-21T12:43:34.378Z,94825.64
2018-05-21T12:46:01.943Z,94820.80
2018-05-21T12:48:29.469Z,94818.91
2018-05-21T12:50:57.008Z,94811.27
2018-05-21T12:53:24.558Z,94805.53
2018-05-21T12:55:52.103Z,94805.05
2018-05-21T12:58:19.676Z,94790.91
2018-05-21T13:00:47.238Z,94788.95
2018-05-21T13:03:14.808Z,94795.71
2018-05-21T13:05:42.332Z,94782.54
2018-05-21T13:08:09.949Z,94779.20
2018-05-21T13:10:37.461Z,94780.23
2018-05-21T13:13:05.054Z,94774.59
2018-05-21T13:15:32.571Z,94773.52
2018-05-21T13:18:00.070Z,94775.67
2018-05-21T13:20:27.563Z,94771.62
2018-05-21T13:22:55.077Z,94770.16
2018-05-21T13:25:22.579Z,94765.77
2018-05-21T13:27:50.076Z,94759.48
2018-05-21T13:30:17.604Z,94761.31
2018-05-21T13:32:45.119Z,94755.14
2018-05-21T13:35:12.623Z,94747.46
2018-05-21T13:37:40.187Z,94754.30
2018-05-21T13:40:07.719Z,94748.58
2018-05-21T13:42:35.244Z,94746.42
2018-05-21T13:45:02.778Z,94741.69
2018-05-21T13:47:30.317Z,94740.80
2018-05-21T13:49:57.875Z,94745.59
2018-05-21T13:52:25.418Z,94739.05
2018-05-21T13:54:52.970Z,94741.92
2018-05-21T13:57:20.505Z,94742.05
2018-05-21T13:59:48.027Z,94741.86
2018-05-21T14:02:15.558Z,94743.94
2018-05-21T14:04:43.090Z,94743.13
2018-05-21T14:07:10.611Z,94743.17
2018-05-21T14:09:38.153Z,94736.20
2018-05-21T14:12:05.658Z,94734.70
2018-05-21T14:14:33.198Z,94734.06
2018-05-21T14:17:00.738Z,94732.34
2018-05-21T14:19:28.236Z,94740.83
2018-05-21T14:21:55.772Z,94737.27
2018-05-21T14:24:23.314Z,94741.34
2018-05-21T14:26:50.844Z,94743.68
2018-05-21T14:29:18.369Z,94738.64
2018-05-21T14:31:45.871Z,94741.73
2018-05-21T14:34:13.398Z,94743.34
2018-05-21T14:36:40.914Z,94745.66
2018-05-21T14:39:08.488Z,94743.28
2018-05-21T14:41:36.003Z,94748.19
2018-05-21T14:44:03.546Z,94744.95
2018-05-21T14:46:31.061Z,94738.14
2018-05-21T14:48:58.571Z,94734.39
2018-05-21T14:51:26.132Z,94736.77
2018-05-21T14:53:53.661Z,94743.03
2018-05-21T14:56:21.247Z,94743.03
2018-05-21T14:58:48.769Z,94734.61
2018-05-21T15:01:16.296Z,94735.58
2018-05-21T15:03:43.818Z,94745.55
2018-05-21T15:06:11.352Z,94736.15
2018-05-21T15:08:39.414Z,94734.67
2018-05-21T15:11:06.917Z,94734.14
2018-05-21T15:13:34.473Z,94729.44
2018-05-21T15:16:02.041Z,94727.38
2018-05-21T15:18:29.597Z,94721.80
2018-05-21T15:20:57.163Z,94719.57
2018-05-21T15:23:24.683Z,94726.30
2018-05-21T15:25:52.248Z,94717.67
2018-05-21T15:28:19.909Z,94722.39
2018-05-21T15:30:47.478Z,94719.76
2018-05-21T15:33:15.014Z,94719.92
2018-05-21T15:35:42.549Z,94718.59
2018-05-21T15:38:10.081Z,94724.11
2018-05-21T15:40:37.610Z,94721.69
2018-05-21T15:43:05.141Z,94721.59
2018-05-21T15:45:32.771Z,94717.52
2018-05-21T15:48:00.330Z,94717.98
2018-05-21T15:50:27.843Z,94715.50
2018-05-21T15:52:55.364Z,94710.58
2018-05-21T15:55:22.896Z,94715.73
2018-05-21T15:57:50.436Z,94720.88
2018-05-21T16:00:17.976Z,94717.67
2018-05-21T16:02:45.478Z,94718.66
2018-05-21T16:05:13.322Z,94714.50
2018-05-21T16:07:40.877Z,94707.47
2018-05-21T16:10:09.221Z,94718.24
2018-05-21T16:12:36.745Z,94712.52
2018-05-21T16:15:04.314Z,94717.72
2018-05-21T16:17:31.845Z,94709.63
2018-05-21T16:19:59.394Z,94710.81
2018-05-21T16:22:26.935Z,94710.33
2018-05-21T16:24:54.472Z,94708.06
2018-05-21T16:27:22.060Z,94712.28
2018-05-21T16:29:49.641Z,94713.27
2018-05-21T16:32:17.247Z,94712.22
2018-05-21T16:34:44.824Z,94712.28
2018-05-21T16:37:12.395Z,94718.80
2018-05-21T16:39:39.997Z,94720.30
2018-05-21T16:42:07.855Z,94714.59
2018-05-21T16:44:35.493Z,94714.52
2018-05-21T16:47:03.032Z,94707.28
2018-05-21T16:49:31.334Z,94713.23
2018-05-21T16:51:58.900Z,94718.94
2018-05-21T16:54:26.492Z,94714.00
2018-05-21T16:56:54.042Z,94706.22
2018-05-21T16:59:21.658Z,94703.31
2018-05-21T17:01:49.225Z,94705.88
2018-05-21T17:04:16.727Z,94719.96
2018-05-21T17:06:44.351Z,94714.85
2018-05-21T17:09:12.800Z,94718.48
2018-05-21T17:11:41.730Z,94721.88
2018-05-21T17:14:09.266Z,94729.36
2018-05-21T17:16:36.889Z,94729.33
2018-05-21T17:19:04.424Z,94730.50
2018-05-21T17:21:32.136Z,94729.91
2018-05-21T17:23:59.734Z,94728.56
2018-05-21T17:26:27.293Z,94726.16
2018-05-21T17:28:54.945Z,94727.27
2018-05-21T17:31:22.588Z,94735.27
2018-05-21T17:33:50.128Z,94736.59
2018-05-21T17:36:17.742Z,94730.06
2018-05-21T17:38:45.304Z,94730.25
2018-05-21T17:41:12.894Z,94730.03
2018-05-21T17:43:40.407Z,94729.79
2018-05-21T17:46:07.967Z,94735.48
2018-05-21T17:48:35.734Z,94740.42
2018-05-21T17:51:03.278Z,94744.55
2018-05-21T17:53:34.948Z,94743.16
2018-05-21T17:56:02.556Z,94737.70
2018-05-21T17:58:30.114Z,94734.96
2018-05-21T18:00:58.619Z,94740.65
2018-05-21T18:03:26.132Z,94745.92
2018-05-21T18:05:53.702Z,94742.95
2018-05-21T18:08:21.987Z,94748.82
2018-05-21T18:10:49.531Z,94753.89
2018-05-21T18:13:17.075Z,94752.48
2018-05-21T18:15:44.662Z,94755.77
2018-05-21T18:18:12.230Z,94762.63
2018-05-21T18:20:39.783Z,94757.72
2018-05-21T18:23:07.366Z,94758.91
2018-05-21T18:25:34.923Z,94761.80
2018-05-21T18:28:02.574Z,94761.59
2018-05-21T18:30:30.206Z,94762.92
2018-05-21T18:32:59.151Z,94765.36
2018-05-21T18:35:26.691Z,94768.46
2018-05-21T18:37:54.251Z,94774.44
2018-05-21T18:40:21.833Z,94777.81
2018-05-21T18:42:49.357Z,94773.95
2018-05-21T18:45:16.963Z,94774.03
2018-05-21T18:47:44.527Z,94771.52
2018-05-21T18:50:12.047Z,94770.58
2018-05-21T18:52:39.622Z,94768.74
2018-05-21T18:55:07.189Z,94771.20
2018-05-21T18:57:34.760Z,94765.97
2018-05-21T19:00:04.809Z,94769.50
2018-05-21T19:02:33.555Z,94768.80
2018-05-21T19:05:01.104Z,94775.64
2018-05-21T19:07:28.713Z,94770.70
2018-05-21T19:09:56.381Z,94771.63
2018-05-21T19:12:24.708Z,94766.66
2018-05-21T19:14:52.277Z,94761.90
2018-05-21T19:17:19.918Z,94756.66
2018-05-21T19:19:47.638Z,94749.55
2018-05-21T19:22:15.175Z,94751.25
2018-05-21T19:24:42.722Z,94755.65
2018-05-21T19:27:12.714Z,94758.88
2018-05-21T19:29:40.272Z,94762.41
2018-05-21T19:32:07.839Z,94758.89
2018-05-21T19:34:35.388Z,94756.48
2018-05-21T19:37:02.923Z,94757.27
2018-05-21T19:39:30.581Z,94754.48
2018-05-21T19:41:58.857Z,94752.75
2018-05-21T19:44:26.709Z,94752.13
2018-05-21T19:46:54.401Z,94755.13
2018-05-21T19:49:22.006Z,94751.91
2018-05-21T19:51:49.992Z,94743.78
2018-05-21T19:54:17.713Z,94741.93
2018-05-21T19:56:45.352Z,94740.71
2018-05-21T19:59:12.896Z,94736.57
2018-05-21T20:01:40.659Z,94738.67
2018-05-21T20:04:08.376Z,94739.67
2018-05-21T20:06:35.895Z,94741.48
2018-05-21T20:09:04.328Z,94743.88
2018-05-21T20:11:31.940Z,94752.22
2018-05-21T20:13:59.567Z,94750.21
2018-05-21T20:16:27.109Z,94749.30
2018-05-21T20:18:54.647Z,94748.34
2018-05-21T20:21:22.198Z,94746.52
2018-05-21T20:23:49.790Z,94750.00
2018-05-21T20:26:17.369Z,94752.83
2018-05-21T20:28:44.972Z,94749.23
2018-05-21T20:31:12.518Z,94757.48
2018-05-21T20:33:40.043Z,94758.36
2018-05-21T20:36:07.566Z,94757.50
2018-05-21T20:38:35.100Z,94765.45
2018-05-21T20:41:02.623Z,94765.05
2018-05-21T20:43:30.201Z,94769.87
2018-05-21T20:45:57.760Z,94770.27
2018-05-21T20:48:25.325Z,94766.09
2018-05-21T20:50:52.878Z,94770.81
2018-05-21T20:53:20.420Z,94755.34
2018-05-21T20:55:47.958Z,94763.98
2018-05-21T20:58:15.530Z,94768.94
2018-05-21T21:00:43.046Z,94773.89
2018-05-21T21:03:10.578Z,94768.02
2018-05-21T21:05:38.102Z,94773.20
2018-05-21T21:08:05.625Z,94775.20
2018-05-21T21:10:33.187Z,94783.73
2018-05-21T21:13:00.719Z,94777.83
2018-05-21T21:15:28.255Z,94785.96
2018-05-21T21:17:55.801Z,94778.39
2018-05-21T21:20:23.319Z,94778.59
2018-05-21T21:22:50.868Z,94781.48
2018-05-21T21:25:18.456Z,94785.00
2018-05-21T21:27:45.951Z,94784.42
2018-05-21T21:30:13.484Z,94780.98
2018-05-21T21:32:41.097Z,94788.55
2018-05-21T21:35:08.562Z,94793.63
2018-05-21T21:37:36.084Z,94793.02
2018-05-21T21:40:03.684Z,94793.16
2018-05-21T21:42:31.215Z,94797.11
2018-05-21T21:44:58.772Z,94795.61
2018-05-21T21:47:26.380Z,94801.80
2018-05-21T21:49:53.896Z,94799.30
2018-05-21T21:52:21.455Z,94797.66
2018-05-21T21:54:49.038Z,94800.76
2018-05-21T21:57:16.659Z,94797.17
2018-05-21T21:59:44.236Z,94797.69
2018-05-21T22:02:11.773Z,94796.78
2018-05-21T22:04:39.300Z,94798.78
2018-05-21T22:07:06.840Z,94799.58
2018-05-21T22:09:34.423Z,94792.35
2018-05-21T22:12:01.955Z,94796.81
2018-05-21T22:14:29.548Z,94802.16
2018-05-21T22:16:57.070Z,94792.78
2018-05-21T22:19:24.597Z,94783.10
2018-05-21T22:21:52.122Z,94791.69
2018-05-21T22:24:19.644Z,94793.73
2018-05-21T22:26:47.165Z,94789.91
2018-05-21T22:29:14.673Z,94791.95
2018-05-21T22:31:42.186Z,94783.89
2018-05-21T22:34:09.748Z,94785.42
2018-05-21T22:36:37.280Z,94776.32
2018-05-21T22:39:05.592Z,94780.47
2018-05-21T22:41:33.113Z,94777.27
2018-05-21T22:44:00.652Z,94782.22
2018-05-21T22:46:28.175Z,94776.78
2018-05-21T22:48:55.682Z,94779.59
2018-05-21T22:51:23.198Z,94787.06
2018-05-21T22:53:50.780Z,94787.78
2018-05-21T22:56:18.296Z,94787.69
2018-05-21T22:58:45.817Z,94792.92
2018-05-21T23:01:13.323Z,94789.81
2018-05-21T23:03:40.833Z,94794.26
2018-05-21T23:06:08.357Z,94797.26
2018-05-21T23:08:35.891Z,94797.08
2018-05-21T23:11:03.423Z,94808.77
2018-05-21T23:13:30.952Z,94799.59
2018-05-21T23:15:58.499Z,94807.66
2018-05-21T23:18:26.075Z,94811.50
2018-05-21T23:20:53.600Z,94800.80
2018-05-21T23:23:21.172Z,94802.61
2018-05-21T23:25:48.771Z,94808.16
2018-05-21T23:28:16.281Z,94788.76
2018-05-21T23:30:43.846Z,94802.86
2018-05-21T23:33:11.386Z,94802.06
2018-05-21T23:35:38.919Z,94791.48
2018-05-21T23:38:06.452Z,94791.67
2018-05-21T23:40:33.964Z,94802.56
2018-05-21T23:43:01.499Z,94798.43
2018-05-21T23:45:29.031Z,94798.83
2018-05-21T23:47:56.561Z,94797.83
2018-05-21T23:50:24.083Z,94801.74
2018-05-21T23:52:51.615Z,94796.72
2018-05-21T23:55:19.169Z,94796.31
2018-05-21T23:57:46.696Z,94800.03
